East Charleston, Pennsylvania
Current Conditions -  °F | °C
As of 12:15 AM on Tuesday 23 Dec 2014 (Local Time) from KN38 Reporting Station
Haze Haze  
Wind Chill: 26°   Ceiling: 300
Heat Index: 32°   Visibility: 2.5mi
Dew Point: 32°   Wind: 7mph
Humidity: 100%   Direction: 170°S
Pressure: 30.05"   Gusts: NA
Location:  41.8345°N, 77.0538°W
Report Text: KN38 230515Z AUTO 17006KT 2 1/2SM BR OVC003 00/M00 A3005 RMK AO2
Loading
Personal Weather Stations






























Interactive Weather Map New forecast layout! Learn more

10-Day Weather Forecast

Advertisements
Track Severe Weather on mobile